China Grove, Texas
Current Conditions -  °F | °C
As of 12:53 PM on Thursday 23 Oct 2014 (Local Time) from KSSF Reporting Station
Overcast Overcast  
Wind Chill: 79°   Ceiling: 11000
Heat Index: 80°   Visibility: 10mi
Dew Point: 57°   Wind: 3mph
Humidity: 47%   Direction: 120°ESE
Pressure: 30.12"   Gusts: NA
Location:  29.3632°N, 98.3088°W
Report Text: KSSF 231753Z 12003KT 10SM OVC110 26/14 A3012 RMK AO2 SLP190 T02610139 10272 20200 58004
Loading
Personal Weather Stations






























Interactive Weather Map
Tropical Storm Tracking
New forecast layout! Learn more

10-Day Weather Forecast

Advertisements
Track Severe Weather on mobile